To NAV CANADA Home Page Login to a new session Search on AWWS site Disclaimer Vers la page française équivalente Tips FAQ What's new on the site To the Forecasts and Observations / NOTAM section To "File a Flight Plan" website Publications and other links Update of the User's profile FIC Telephone Numbers My Weather Data Folder Route Weather Data Regional Weather Data Local Weather Data To the Forecasts and Observations / NOTAM section
Request Generated 10/21/2018 at 05:51:26 UTC . Weather information available at that time is displayed.

METAR/TAF

TORONTO/LESTER B. PEARSON INTL/ON    

METAR CYYZ 210500Z 33022G28KT 15SM SCT035 BKN050 03/M03 A2988 RMK SC4SC3 SLP124=
METAR CYYZ 210400Z 34013G20KT 15SM SCT042 BKN050 05/M05 A2984 RMK SC4SC3 SLP111=
METAR CYYZ 210300Z 36019G26KT 15SM OVC050 06/M03 A2981 RMK SC8 SLP100=

TAF CYYZ 210542Z 2106/2212 33015G28KT P6SM BKN050
FM210800 34012KT P6SM BKN030 TEMPO 2109/2114 P6SM -SHSN
FM211500 33010G20KT P6SM BKN030
FM211700 32010G20KT P6SM BKN040
FM212200 29010G20KT P6SM BKN030 TEMPO 2122/2124 P6SM -SHRA
FM220300 25008KT P6SM BKN030
RMK NXT FCST BY 210900Z=
Your time UTC time
Weather data provided by Environment Canada and NAV CANADA